Time;durP1;ratioP1;P1;durP2;ratioP2;P2;SDS_P1;SDS_P2;PMS_P1;PMS_P2;Temp;Humidity;BMP_temperature;BMP_pressure;BME280_temperature;BME280_humidity;BME280_pressure;Samples;Min_cycle;Max_cycle;Signal;HPM_P1;HPM_P2
2022/11/09 00:00:45;;;;;;;4.35;3.55;;;17.80;82.70;;;;;;5050990;28;20191;-69
2022/11/09 00:03:11;;;;;;;3.75;3.33;;;17.80;82.70;;;;;;5050929;28;20213;-69
2022/11/09 00:05:37;;;;;;;4.53;3.88;;;17.80;82.70;;;;;;5050847;28;20764;-69
2022/11/09 00:08:08;;;;;;;3.67;3.30;;;17.80;82.70;;;;;;5050990;28;20274;-69
2022/11/09 00:10:34;;;;;;;4.88;3.65;;;17.80;82.70;;;;;;5050368;28;20214;-69
2022/11/09 00:13:00;;;;;;;4.80;3.92;;;17.80;82.80;;;;;;5034220;28;20229;-69
2022/11/09 00:15:26;;;;;;;4.45;3.65;;;17.80;82.70;;;;;;5052026;28;20265;-70
2022/11/09 00:17:52;;;;;;;4.20;3.33;;;17.80;82.70;;;;;;5034342;28;20734;-70
2022/11/09 00:20:18;;;;;;;5.28;3.30;;;17.80;82.70;;;;;;5034310;28;20185;-69
2022/11/09 00:22:47;;;;;;;3.67;3.28;;;17.80;82.70;;;;;;5034587;28;20293;-69
2022/11/09 00:25:13;;;;;;;6.65;3.72;;;17.80;82.80;;;;;;5050657;28;20182;-69
2022/11/09 00:27:39;;;;;;;3.88;3.50;;;17.80;82.70;;;;;;5034133;28;20213;-69
2022/11/09 00:30:06;;;;;;;5.22;3.45;;;17.80;82.70;;;;;;5051062;28;20189;-69
2022/11/09 00:32:32;;;;;;;3.67;3.38;;;17.80;82.70;;;;;;5034119;28;20199;-69
2022/11/09 00:34:58;;;;;;;4.00;3.50;;;17.80;82.60;;;;;;5033962;28;20190;-69
2022/11/09 00:37:23;;;;;;;3.70;3.30;;;17.80;82.60;;;;;;5034444;28;20189;-69
2022/11/09 00:39:49;;;;;;;3.42;3.13;;;17.80;82.50;;;;;;5034498;28;20187;-69
2022/11/09 00:42:15;;;;;;;3.90;3.28;;;17.80;82.50;;;;;;5051835;28;20209;-69
2022/11/09 00:44:41;;;;;;;4.95;3.17;;;17.80;82.50;;;;;;5034012;28;20216;-69
2022/11/09 00:47:08;;;;;;;4.18;3.78;;;17.80;82.60;;;;;;5033949;28;20300;-69
2022/11/09 00:49:33;;;;;;;3.58;3.10;;;17.80;82.50;;;;;;5033891;28;20273;-69
2022/11/09 00:51:59;;;;;;;5.57;3.47;;;17.80;82.40;;;;;;5048979;28;20350;-69
2022/11/09 00:54:25;;;;;;;5.28;3.40;;;17.80;82.60;;;;;;5050291;28;20267;-69
2022/11/09 00:56:51;;;;;;;4.50;3.50;;;17.80;82.50;;;;;;5033864;28;20189;-69
2022/11/09 00:59:16;;;;;;;3.67;2.95;;;17.80;82.60;;;;;;5034042;28;20236;-69
2022/11/09 01:01:42;;;;;;;5.10;3.00;;;17.80;82.60;;;;;;5050635;28;20206;-68
2022/11/09 01:04:08;;;;;;;3.55;3.25;;;17.80;82.40;;;;;;5033922;28;20194;-68
2022/11/09 01:06:34;;;;;;;4.15;3.28;;;17.80;82.70;;;;;;5050662;28;20693;-67
2022/11/09 01:09:01;;;;;;;3.53;2.97;;;17.80;82.60;;;;;;5033969;28;20187;-69
2022/11/09 01:11:27;;;;;;;4.75;2.78;;;17.80;82.60;;;;;;5050484;28;20189;-68
2022/11/09 01:13:53;;;;;;;3.75;3.03;;;17.80;82.60;;;;;;5034172;28;20179;-68
2022/11/09 01:16:22;;;;;;;4.07;2.80;;;17.80;82.70;;;;;;5033772;28;20210;-69
2022/11/09 01:18:52;;;;;;;3.63;3.33;;;17.80;82.70;;;;;;5050414;28;20198;-69
2022/11/09 01:21:17;;;;;;;3.38;2.72;;;17.80;82.50;;;;;;5050215;28;20186;-69
2022/11/09 01:23:43;;;;;;;2.92;2.30;;;17.80;82.60;;;;;;5037074;28;20186;-69
2022/11/09 01:26:12;;;;;;;3.55;2.70;;;17.80;82.60;;;;;;5036998;28;20347;-68
2022/11/09 01:28:38;;;;;;;2.90;2.58;;;17.70;82.30;;;;;;5054020;28;20214;-68
2022/11/09 01:31:10;;;;;;;2.70;2.42;;;17.80;82.50;;;;;;5037507;28;20176;-69
2022/11/09 01:33:36;;;;;;;3.15;2.72;;;17.80;82.40;;;;;;5037097;28;20185;-69
2022/11/09 01:36:07;;;;;;;3.33;2.72;;;17.70;82.10;;;;;;5036840;28;20179;-69
2022/11/09 01:38:36;;;;;;;2.55;2.35;;;17.80;82.40;;;;;;5054046;28;20236;-69
2022/11/09 01:41:03;;;;;;;3.80;2.83;;;17.80;82.20;;;;;;5037298;28;20183;-69
2022/11/09 01:43:29;;;;;;;3.03;2.70;;;17.80;82.20;;;;;;5053440;28;20211;-68
2022/11/09 01:46:21;;;;;;;2.92;2.55;;;17.70;82.20;;;;;;5036947;28;20297;-69
2022/11/09 01:49:02;;;;;;;2.35;2.15;;;17.70;82.10;;;;;;5053729;28;20277;-69
2022/11/09 01:51:41;;;;;;;2.92;2.40;;;17.80;82.50;;;;;;5036765;28;20187;-69
2022/11/09 01:54:27;;;;;;;3.83;2.60;;;17.70;82.10;;;;;;5036464;28;20181;-68
2022/11/09 01:57:00;;;;;;;3.20;2.67;;;17.80;82.20;;;;;;5037193;28;20166;-68
2022/11/09 01:59:32;;;;;;;2.50;2.30;;;17.80;82.20;;;;;;5036710;28;20190;-69
2022/11/09 02:02:00;;;;;;;2.72;2.45;;;17.80;82.20;;;;;;5060045;23;20233;-67
2022/11/09 02:04:40;;;;;;;2.83;2.35;;;17.80;82.20;;;;;;5052717;28;20182;-67
2022/11/09 02:07:09;;;;;;;2.78;2.40;;;17.70;82.10;;;;;;5053019;28;20340;-67
2022/11/09 02:09:54;;;;;;;3.20;2.60;;;17.80;82.20;;;;;;5053030;28;20564;-67
2022/11/09 02:12:24;;;;;;;2.95;2.45;;;17.80;82.40;;;;;;5050210;28;20675;-67
2022/11/09 02:14:53;;;;;;;3.35;2.25;;;17.70;82.40;;;;;;5032833;28;20171;-67
2022/11/09 02:17:19;;;;;;;1.95;1.83;;;17.80;82.20;;;;;;5016437;28;20213;-67
2022/11/09 02:19:45;;;;;;;3.17;2.28;;;17.80;82.30;;;;;;5049562;28;20198;-67
2022/11/09 02:22:11;;;;;;;2.20;2.00;;;17.70;82.10;;;;;;5032722;28;20649;-67
2022/11/09 02:24:38;;;;;;;2.97;2.38;;;17.80;82.30;;;;;;5033879;28;20180;-67
2022/11/09 02:27:06;;;;;;;2.40;1.98;;;17.70;82.10;;;;;;5049212;28;20215;-67
2022/11/09 02:29:37;;;;;;;2.70;2.05;;;17.70;82.20;;;;;;5032891;28;20650;-67
2022/11/09 02:32:10;;;;;;;2.53;2.17;;;17.80;82.20;;;;;;5032913;28;20203;-67
2022/11/09 02:34:36;;;;;;;3.47;2.28;;;17.80;82.20;;;;;;5031899;28;20223;-67
2022/11/09 02:37:02;;;;;;;2.50;2.30;;;17.80;82.20;;;;;;5032671;28;20213;-67
2022/11/09 02:39:28;;;;;;;2.30;1.98;;;17.80;82.20;;;;;;5031403;28;20186;-67
2022/11/09 02:42:01;;;;;;;2.30;2.05;;;17.80;82.20;;;;;;5048951;28;20207;-67
2022/11/09 02:44:38;;;;;;;2.33;2.10;;;17.80;82.20;;;;;;5016660;28;20190;-67
2022/11/09 02:47:05;;;;;;;2.40;2.20;;;17.70;82.10;;;;;;5032539;28;20234;-67
2022/11/09 02:49:30;;;;;;;2.42;1.77;;;17.80;82.20;;;;;;5048948;28;20179;-67
2022/11/09 02:51:56;;;;;;;2.22;1.98;;;17.70;82.20;;;;;;5048859;28;20258;-68
2022/11/09 02:54:22;;;;;;;2.28;2.08;;;17.80;82.20;;;;;;5032012;28;20198;-67
2022/11/09 02:56:48;;;;;;;2.55;2.30;;;17.70;82.10;;;;;;5049207;28;20171;-67
2022/11/09 02:59:15;;;;;;;2.50;2.30;;;17.70;82.10;;;;;;5033386;28;20183;-67
2022/11/09 03:01:41;;;;;;;2.20;2.00;;;17.70;82.10;;;;;;5032177;28;20270;-67
2022/11/09 03:04:07;;;;;;;2.25;1.92;;;17.70;82.10;;;;;;5033327;28;20270;-67
2022/11/09 03:06:34;;;;;;;2.20;2.00;;;17.70;82.10;;;;;;5032046;28;20211;-67
2022/11/09 03:09:09;;;;;;;2.33;1.98;;;17.80;82.20;;;;;;5048760;28;20198;-67
2022/11/09 03:11:36;;;;;;;2.10;1.73;;;17.70;82.10;;;;;;5032200;28;20167;-67
2022/11/09 03:14:02;;;;;;;2.42;2.20;;;17.80;82.20;;;;;;5032083;28;20195;-67
2022/11/09 03:16:30;;;;;;;2.17;1.98;;;17.70;82.10;;;;;;5031775;28;20241;-67
2022/11/09 03:18:57;;;;;;;2.72;2.05;;;17.70;82.10;;;;;;5032067;28;20191;-67
2022/11/09 03:21:23;;;;;;;2.65;2.00;;;17.70;82.10;;;;;;5048265;28;20247;-67
2022/11/09 03:23:51;;;;;;;2.13;1.92;;;17.70;81.90;;;;;;5015400;28;20187;-67
2022/11/09 03:26:17;;;;;;;2.08;1.83;;;17.80;81.90;;;;;;5031792;28;20299;-67
2022/11/09 03:28:43;;;;;;;2.40;1.90;;;17.70;82.00;;;;;;5033006;28;20179;-67
2022/11/09 03:31:09;;;;;;;2.72;1.85;;;17.80;82.10;;;;;;5031871;28;20655;-67
2022/11/09 03:33:35;;;;;;;2.50;2.17;;;17.70;82.10;;;;;;5031505;28;20199;-67
2022/11/09 03:36:02;;;;;;;3.00;2.10;;;17.70;82.10;;;;;;5031373;28;20206;-67
2022/11/09 03:38:28;;;;;;;2.63;2.15;;;17.70;82.10;;;;;;5048291;28;20202;-67
2022/11/09 03:40:58;;;;;;;2.00;1.40;;;17.70;82.10;;;;;;5015172;28;20616;-65
2022/11/09 03:43:24;;;;;;;2.10;1.90;;;17.70;82.10;;;;;;5031252;28;20279;-67
2022/11/09 03:45:49;;;;;;;1.77;1.63;;;17.70;82.10;;;;;;5046930;28;20290;-67
2022/11/09 03:48:16;;;;;;;2.40;1.90;;;17.80;82.20;;;;;;5014809;28;20187;-67
2022/11/09 03:50:42;;;;;;;2.15;1.98;;;17.70;82.10;;;;;;5021459;28;20198;-67
2022/11/09 03:53:09;;;;;;;1.77;1.67;;;17.70;82.90;;;;;;5031337;28;20199;-67
2022/11/09 03:55:37;;;;;;;2.05;1.85;;;17.80;82.20;;;;;;5030949;28;20202;-67
2022/11/09 03:58:04;;;;;;;2.20;1.80;;;17.70;82.10;;;;;;5048123;28;20254;-67
2022/11/09 04:00:31;;;;;;;2.20;2.00;;;17.70;82.10;;;;;;5031568;28;20329;-67
2022/11/09 04:02:58;;;;;;;1.92;1.70;;;17.80;82.20;;;;;;5014603;28;20298;-68
2022/11/09 04:05:24;;;;;;;1.77;1.67;;;17.70;82.10;;;;;;5032194;28;20187;-67
2022/11/09 04:07:56;;;;;;;1.90;1.70;;;17.80;82.20;;;;;;5031068;28;20569;-67
2022/11/09 04:10:24;;;;;;;2.10;1.90;;;17.80;82.70;;;;;;5047773;28;20171;-67
2022/11/09 04:12:50;;;;;;;2.05;1.80;;;17.80;82.20;;;;;;5030997;28;20203;-67
2022/11/09 04:15:16;;;;;;;2.72;1.88;;;17.80;82.20;;;;;;5014320;28;20236;-68
2022/11/09 04:17:43;;;;;;;1.95;1.77;;;17.80;82.00;;;;;;5030861;28;20273;-67
2022/11/09 04:20:10;;;;;;;1.80;1.70;;;17.80;81.90;;;;;;5047605;28;20266;-67
2022/11/09 04:22:37;;;;;;;1.75;1.65;;;17.80;82.00;;;;;;5032165;28;20689;-67
2022/11/09 04:25:04;;;;;;;1.88;1.77;;;17.80;82.10;;;;;;5032003;28;20191;-67
2022/11/09 04:27:30;;;;;;;1.60;1.50;;;17.80;82.20;;;;;;5031293;28;20231;-67
2022/11/09 04:29:56;;;;;;;1.90;1.50;;;17.70;82.10;;;;;;5032094;28;20261;-67
2022/11/09 04:32:22;;;;;;;1.77;1.60;;;17.70;82.10;;;;;;5027722;28;20273;-67
2022/11/09 04:34:47;;;;;;;2.13;1.73;;;17.80;82.20;;;;;;5027407;28;20251;-67
2022/11/09 04:37:13;;;;;;;1.85;1.50;;;17.80;82.20;;;;;;5011061;28;20186;-67
2022/11/09 04:39:39;;;;;;;2.03;1.70;;;17.80;82.20;;;;;;5011299;28;20554;-66
2022/11/09 04:42:05;;;;;;;1.67;1.58;;;17.80;82.20;;;;;;5027337;28;20224;-67
2022/11/09 04:44:30;;;;;;;1.50;1.40;;;17.80;82.20;;;;;;5010812;28;20188;-67
2022/11/09 04:46:56;;;;;;;2.40;1.80;;;17.80;82.20;;;;;;5012149;28;20582;-67
2022/11/09 04:49:22;;;;;;;2.03;1.77;;;17.80;82.20;;;;;;5010993;28;20275;-67
2022/11/09 04:51:47;;;;;;;2.22;1.73;;;17.80;82.20;;;;;;5043979;28;20688;-67
2022/11/09 04:54:13;;;;;;;2.85;1.80;;;17.80;82.30;;;;;;5011271;28;20187;-67
2022/11/09 04:56:39;;;;;;;2.22;1.67;;;17.70;82.10;;;;;;5011467;28;20254;-67
2022/11/09 04:59:05;;;;;;;1.73;1.60;;;17.80;82.20;;;;;;5031289;28;20282;-67
2022/11/09 05:01:31;;;;;;;1.85;1.65;;;17.70;82.10;;;;;;5047580;28;20176;-66
2022/11/09 05:03:56;;;;;;;2.28;1.73;;;17.70;82.10;;;;;;5015879;28;20207;-69
2022/11/09 05:06:31;;;;;;;1.60;1.50;;;17.70;82.10;;;;;;5030792;28;20250;-67
2022/11/09 05:09:06;;;;;;;1.75;1.58;;;17.80;82.20;;;;;;5047649;28;20275;-67
2022/11/09 05:11:35;;;;;;;1.70;1.60;;;17.80;82.40;;;;;;5014569;28;20674;-66
2022/11/09 05:14:01;;;;;;;2.47;1.60;;;17.80;82.50;;;;;;5015594;28;20183;-67
2022/11/09 05:16:28;;;;;;;1.60;1.50;;;17.70;82.40;;;;;;5033926;28;20182;-67
2022/11/09 05:18:54;;;;;;;1.42;1.30;;;17.80;82.60;;;;;;5050805;28;20187;-68
2022/11/09 05:21:20;;;;;;;1.73;1.38;;;17.80;82.60;;;;;;5050902;28;20253;-67
2022/11/09 05:23:58;;;;;;;1.63;1.33;;;17.70;82.50;;;;;;5033976;28;20183;-67
2022/11/09 05:26:39;;;;;;;1.80;1.50;;;17.80;82.60;;;;;;5050421;28;20215;-67
2022/11/09 05:29:10;;;;;;;3.10;2.03;;;17.80;82.60;;;;;;5017752;28;20179;-67
2022/11/09 05:31:38;;;;;;;2.30;2.03;;;17.70;82.60;;;;;;5050348;28;20194;-67
2022/11/09 05:34:05;;;;;;;2.03;1.80;;;17.80;82.90;;;;;;5034939;28;20171;-67
2022/11/09 05:36:32;;;;;;;2.25;2.05;;;17.80;82.80;;;;;;5050090;28;20191;-67
2022/11/09 05:38:59;;;;;;;3.20;2.40;;;17.80;82.80;;;;;;5033586;28;20183;-67
2022/11/09 05:41:26;;;;;;;2.95;2.05;;;17.70;82.70;;;;;;5050214;28;20226;-68
2022/11/09 05:43:52;;;;;;;2.28;2.08;;;17.70;82.70;;;;;;5050247;28;20224;-67
2022/11/09 05:46:18;;;;;;;2.00;1.80;;;17.80;82.90;;;;;;5033516;28;20210;-67
2022/11/09 05:48:45;;;;;;;2.30;2.10;;;17.80;82.90;;;;;;5033500;28;20187;-67
2022/11/09 05:51:13;;;;;;;2.05;1.85;;;17.80;83.00;;;;;;5050301;28;20198;-67
2022/11/09 05:53:38;;;;;;;2.67;2.20;;;17.80;83.00;;;;;;5066791;28;20209;-67
2022/11/09 05:56:08;;;;;;;2.45;2.20;;;17.80;83.10;;;;;;5034466;28;20179;-66
2022/11/09 05:58:37;;;;;;;2.30;2.10;;;17.70;83.00;;;;;;5033218;28;20195;-66
2022/11/09 06:01:09;;;;;;;2.17;1.98;;;17.80;83.10;;;;;;5033377;28;20274;-67
2022/11/09 06:03:35;;;;;;;1.88;1.77;;;17.80;83.20;;;;;;5033336;28;20225;-67
2022/11/09 06:06:06;;;;;;;2.45;1.90;;;17.80;83.20;;;;;;5049786;28;20211;-66
2022/11/09 06:08:33;;;;;;;3.80;1.98;;;17.80;83.30;;;;;;5032223;28;20190;-67
2022/11/09 06:11:05;;;;;;;1.85;1.75;;;17.80;83.30;;;;;;5066624;28;20226;-67
2022/11/09 06:13:32;;;;;;;1.90;1.70;;;17.80;83.40;;;;;;5033089;28;20257;-67
2022/11/09 06:16:00;;;;;;;2.05;1.73;;;17.80;83.60;;;;;;5033353;28;20200;-67
2022/11/09 06:18:28;;;;;;;2.35;2.15;;;17.80;83.60;;;;;;4996366;28;20188;-66
2022/11/09 06:20:57;;;;;;;2.33;2.08;;;17.80;83.60;;;;;;5013955;28;20190;-67
2022/11/09 06:23:24;;;;;;;2.15;1.95;;;17.80;83.70;;;;;;5011632;28;20204;-67
2022/11/09 06:26:09;;;;;;;2.92;2.20;;;17.80;83.60;;;;;;5047036;28;20237;-66
2022/11/09 06:28:37;;;;;;;2.20;2.00;;;17.80;83.70;;;;;;5012380;28;20180;-66
2022/11/09 06:31:06;;;;;;;2.55;1.90;;;17.80;83.80;;;;;;5035306;28;20212;-67
2022/11/09 06:33:34;;;;;;;1.80;1.70;;;17.80;83.90;;;;;;5032329;28;20230;-66
2022/11/09 06:36:01;;;;;;;1.95;1.75;;;17.80;84.10;;;;;;5032085;28;20187;-66
2022/11/09 06:38:27;;;;;;;2.22;2.00;;;17.80;84.00;;;;;;5033471;28;20191;-66
2022/11/09 06:40:56;;;;;;;1.90;1.80;;;17.80;84.00;;;;;;5032146;28;20191;-66
2022/11/09 06:43:22;;;;;;;1.98;1.80;;;17.80;84.10;;;;;;5048718;28;20214;-67
2022/11/09 06:45:49;;;;;;;2.17;1.98;;;17.80;84.10;;;;;;5064985;28;20707;-67
2022/11/09 06:48:15;;;;;;;3.50;2.00;;;17.80;84.90;;;;;;5032015;28;20191;-66
2022/11/09 06:50:41;;;;;;;2.40;1.65;;;17.80;84.20;;;;;;5032041;28;20190;-67
2022/11/09 06:53:10;;;;;;;2.03;1.55;;;17.80;84.30;;;;;;5031780;28;20253;-67
2022/11/09 06:55:37;;;;;;;2.53;1.60;;;17.80;84.40;;;;;;5031609;28;20659;-66
2022/11/09 06:58:10;;;;;;;2.03;1.85;;;17.80;84.40;;;;;;5031759;28;20249;-66
2022/11/09 07:00:37;;;;;;;1.77;1.65;;;17.80;84.50;;;;;;5031687;28;20187;-66
2022/11/09 07:03:03;;;;;;;2.47;1.95;;;17.80;84.50;;;;;;5032827;28;20215;-67
2022/11/09 07:05:29;;;;;;;1.50;1.40;;;17.80;84.50;;;;;;5031378;28;20207;-67
2022/11/09 07:07:56;;;;;;;2.65;1.80;;;17.70;84.40;;;;;;5028446;28;20234;-67
2022/11/09 07:10:22;;;;;;;2.55;1.85;;;17.80;84.60;;;;;;5031521;28;20206;-66
2022/11/09 07:12:48;;;;;;;2.10;1.50;;;17.80;84.80;;;;;;5031484;28;20587;-67
2022/11/09 07:15:14;;;;;;;1.70;1.58;;;17.80;84.80;;;;;;5031145;28;20556;-66
2022/11/09 07:17:40;;;;;;;1.73;1.60;;;17.80;84.80;;;;;;5031636;28;20708;-66
2022/11/09 07:20:08;;;;;;;3.03;1.95;;;17.80;84.90;;;;;;5032428;28;20222;-67
2022/11/09 07:22:38;;;;;;;4.07;1.83;;;17.80;84.80;;;;;;5031389;28;20207;-66
2022/11/09 07:25:10;;;;;;;1.63;1.52;;;17.80;84.80;;;;;;5047765;28;20191;-67
2022/11/09 07:27:36;;;;;;;1.75;1.48;;;17.80;85.00;;;;;;5031146;28;20214;-66
2022/11/09 07:30:03;;;;;;;3.05;1.67;;;17.80;85.00;;;;;;5031519;28;20210;-67
2022/11/09 07:32:33;;;;;;;2.22;1.73;;;17.80;85.00;;;;;;5031248;28;20199;-66
2022/11/09 07:34:58;;;;;;;1.60;1.42;;;17.80;85.00;;;;;;5032111;28;20609;-66
2022/11/09 07:37:24;;;;;;;1.83;1.70;;;17.80;85.00;;;;;;5064421;28;20187;-66
2022/11/09 07:39:50;;;;;;;2.47;1.50;;;17.80;85.10;;;;;;5031280;28;20801;-66
2022/11/09 07:42:15;;;;;;;2.58;1.50;;;17.80;85.30;;;;;;5047491;28;20202;-66
2022/11/09 07:44:41;;;;;;;1.55;1.40;;;17.80;85.40;;;;;;5030726;28;20298;-67
2022/11/09 07:47:07;;;;;;;2.25;1.73;;;17.80;85.40;;;;;;5030834;28;20224;-67
2022/11/09 07:49:32;;;;;;;2.42;1.60;;;17.80;85.30;;;;;;5030935;28;20233;-66
2022/11/09 07:51:58;;;;;;;1.58;1.30;;;17.80;85.40;;;;;;5030784;28;20207;-67
2022/11/09 07:54:24;;;;;;;1.60;1.50;;;17.80;85.30;;;;;;5030802;28;20184;-67
2022/11/09 07:56:50;;;;;;;2.03;1.30;;;17.80;85.50;;;;;;5030812;28;20213;-66
2022/11/09 07:59:16;;;;;;;1.70;1.60;;;17.80;85.50;;;;;;5046202;28;20191;-67
2022/11/09 08:04:17;;;;;;;1.65;1.55;;;17.80;85.80;;;;;;5024597;28;20225;-70
2022/11/09 08:06:43;;;;;;;1.50;1.40;;;17.80;85.50;;;;;;5033739;28;20298;-69
2022/11/09 08:09:09;;;;;;;1.67;1.30;;;17.80;85.60;;;;;;5030777;28;20268;-70
2022/11/09 08:11:35;;;;;;;1.90;1.58;;;17.80;85.60;;;;;;5030660;28;20179;-70
2022/11/09 08:14:01;;;;;;;3.35;1.77;;;17.80;85.80;;;;;;5030714;28;20203;-70
2022/11/09 08:16:26;;;;;;;1.60;1.13;;;17.80;85.90;;;;;;5013853;28;20192;-70
2022/11/09 08:18:52;;;;;;;2.30;1.40;;;17.80;85.80;;;;;;5030997;28;20183;-70
2022/11/09 08:21:18;;;;;;;1.98;1.63;;;17.80;85.70;;;;;;5031920;28;20647;-70
2022/11/09 08:23:44;;;;;;;1.80;1.20;;;17.80;86.00;;;;;;5014034;28;20217;-70
2022/11/09 08:26:11;;;;;;;3.13;1.30;;;17.80;86.00;;;;;;5030357;28;20214;-70
2022/11/09 08:28:36;;;;;;;2.42;1.40;;;17.80;85.90;;;;;;5013949;28;20681;-70
2022/11/09 08:31:06;;;;;;;1.48;1.38;;;17.80;86.00;;;;;;5030495;28;20187;-70
2022/11/09 08:33:39;;;;;;;1.88;1.45;;;17.80;86.00;;;;;;5050479;28;20199;-70
2022/11/09 08:36:15;;;;;;;1.85;1.25;;;17.80;86.20;;;;;;5034344;28;20206;-70
2022/11/09 08:38:43;;;;;;;1.83;1.40;;;17.80;86.10;;;;;;5034418;28;20202;-70
2022/11/09 08:41:10;;;;;;;1.48;1.38;;;17.80;86.10;;;;;;5017926;28;20191;-69
2022/11/09 08:43:36;;;;;;;2.17;1.20;;;17.80;86.20;;;;;;5017701;28;20206;-70
2022/11/09 08:46:02;;;;;;;1.73;1.35;;;17.80;86.40;;;;;;5017708;28;20219;-70
2022/11/09 08:48:28;;;;;;;1.27;1.13;;;17.80;86.20;;;;;;5034388;28;20229;-70
2022/11/09 08:50:57;;;;;;;1.42;1.10;;;17.80;86.20;;;;;;5035436;28;20176;-70
2022/11/09 08:53:26;;;;;;;1.60;1.13;;;17.80;86.30;;;;;;5017785;28;20686;-70
2022/11/09 08:55:52;;;;;;;1.77;1.40;;;17.80;86.40;;;;;;5035120;28;20278;-70
2022/11/09 08:58:19;;;;;;;2.85;1.40;;;17.80;86.50;;;;;;5049712;28;20221;-70
2022/11/09 09:00:45;;;;;;;1.55;1.20;;;17.80;86.40;;;;;;5015375;28;20196;-70
2022/11/09 09:03:11;;;;;;;1.80;1.10;;;17.80;86.40;;;;;;5017529;28;20284;-70
2022/11/09 09:05:37;;;;;;;1.30;1.20;;;17.80;87.10;;;;;;5000640;28;20650;-70
2022/11/09 09:08:05;;;;;;;2.03;1.48;;;17.80;86.40;;;;;;5030010;28;20190;-70
2022/11/09 09:10:34;;;;;;;1.83;1.30;;;17.80;86.60;;;;;;5037123;28;20182;-70
2022/11/09 09:13:02;;;;;;;1.92;1.40;;;17.80;86.70;;;;;;5036969;28;20206;-70
2022/11/09 09:15:27;;;;;;;1.67;1.30;;;17.80;86.70;;;;;;5036886;28;20190;-70
2022/11/09 09:17:53;;;;;;;1.20;1.10;;;17.80;86.80;;;;;;5001489;28;20195;-70
2022/11/09 09:20:19;;;;;;;1.38;1.23;;;17.80;86.80;;;;;;5017233;28;20278;-70
2022/11/09 09:22:45;;;;;;;1.35;1.20;;;17.80;86.70;;;;;;5033490;28;20683;-70
2022/11/09 09:25:11;;;;;;;1.60;1.13;;;17.80;86.90;;;;;;5000666;28;20190;-69
2022/11/09 09:27:37;;;;;;;2.05;1.48;;;17.80;86.90;;;;;;5016930;28;20250;-70
2022/11/09 09:30:04;;;;;;;1.45;1.27;;;17.80;86.90;;;;;;5017005;28;20213;-70
2022/11/09 09:32:30;;;;;;;1.85;1.40;;;17.80;86.90;;;;;;5016870;28;20254;-70
2022/11/09 09:34:55;;;;;;;1.35;1.25;;;17.80;87.00;;;;;;5034358;28;20266;-69
2022/11/09 09:37:21;;;;;;;1.48;1.25;;;17.80;87.00;;;;;;5033342;28;20234;-70
2022/11/09 09:39:47;;;;;;;1.20;1.17;;;17.80;87.10;;;;;;5033665;28;20192;-70
2022/11/09 09:42:19;;;;;;;1.75;1.30;;;17.80;87.00;;;;;;5016749;28;20222;-70
2022/11/09 09:45:19;;;;;;;1.83;1.38;;;17.80;87.00;;;;;;5033217;28;20249;-69
2022/11/09 09:48:02;;;;;;;1.30;1.20;;;17.80;87.10;;;;;;5016685;28;20221;-70
2022/11/09 09:50:42;;;;;;;1.42;1.33;;;17.80;87.00;;;;;;5000504;28;20198;-70
2022/11/09 09:53:37;;;;;;;1.23;1.13;;;17.80;87.10;;;;;;5016411;28;20294;-70
2022/11/09 09:56:18;;;;;;;1.30;1.20;;;17.80;87.10;;;;;;5016422;28;20187;-70
2022/11/09 09:59:36;;;;;;;1.65;1.10;;;17.90;87.10;;;;;;5016560;28;20191;-70
2022/11/09 10:02:02;;;;;;;1.70;1.27;;;17.80;87.10;;;;;;5000081;28;20278;-70
2022/11/09 10:04:40;;;;;;;1.45;1.25;;;17.90;87.20;;;;;;5016351;28;20195;-70
2022/11/09 10:07:37;;;;;;;1.30;1.13;;;17.80;87.30;;;;;;5016108;28;20218;-70
2022/11/09 10:10:43;;;;;;;1.50;1.10;;;17.90;87.60;;;;;;4999574;28;20226;-70
2022/11/09 10:13:27;;;;;;;1.88;1.20;;;17.80;87.30;;;;;;5036537;28;20206;-70
2022/11/09 10:16:11;;;;;;;1.30;1.20;;;17.80;87.30;;;;;;5032562;28;20199;-70
2022/11/09 10:19:22;;;;;;;1.27;1.17;;;17.90;87.50;;;;;;5016099;28;20690;-70
2022/11/09 10:22:18;;;;;;;1.63;1.10;;;17.80;87.50;;;;;;5032570;28;20195;-70
2022/11/09 10:25:10;;;;;;;0.70;0.70;;;17.90;87.70;;;;;;5032400;28;20282;-68
2022/11/09 10:27:49;;;;;;;1.27;1.05;;;17.90;87.60;;;;;;5015844;28;20572;-70
2022/11/09 10:30:18;;;;;;;1.30;1.20;;;17.90;87.70;;;;;;5033681;28;20183;-70
2022/11/09 10:32:50;;;;;;;1.48;1.10;;;17.90;87.70;;;;;;5032368;28;20199;-70
2022/11/09 10:35:28;;;;;;;2.50;1.20;;;17.90;87.80;;;;;;5032213;28;20184;-69
2022/11/09 10:37:54;;;;;;;1.60;1.23;;;17.90;87.90;;;;;;5033520;28;20241;-70
2022/11/09 10:40:52;;;;;;;1.05;1.05;;;17.80;87.80;;;;;;5032223;28;20191;-70
2022/11/09 10:43:36;;;;;;;1.10;1.00;;;17.90;88.00;;;;;;5046440;28;20214;-70
2022/11/09 10:46:20;;;;;;;2.25;1.15;;;17.90;87.90;;;;;;5032323;28;20218;-70
2022/11/09 10:49:20;;;;;;;1.13;1.00;;;17.90;88.00;;;;;;5032382;28;20206;-70
2022/11/09 10:52:38;;;;;;;1.02;0.93;;;17.90;88.00;;;;;;5033208;28;20226;-69
2022/11/09 10:55:27;;;;;;;1.17;1.08;;;17.90;88.00;;;;;;5045848;28;20194;-69
2022/11/09 10:58:27;;;;;;;1.20;1.00;;;17.90;88.00;;;;;;5032465;28;20673;-70
2022/11/09 11:01:21;;;;;;;1.42;1.30;;;17.90;88.00;;;;;;5033083;28;20237;-70
2022/11/09 11:04:26;;;;;;;1.10;1.00;;;17.90;88.00;;;;;;5032624;28;20301;-70
2022/11/09 11:07:19;;;;;;;2.25;1.15;;;17.90;88.10;;;;;;5017647;28;20253;-70
2022/11/09 11:10:15;;;;;;;1.27;1.05;;;17.90;88.10;;;;;;5018251;28;20210;-70
2022/11/09 11:13:00;;;;;;;1.20;1.10;;;17.90;88.20;;;;;;5018105;28;20276;-69
2022/11/09 11:15:45;;;;;;;1.63;1.02;;;17.90;88.30;;;;;;5032621;28;20198;-69
2022/11/09 11:18:34;;;;;;;1.20;1.10;;;17.90;88.40;;;;;;5032733;28;20257;-70
2022/11/09 11:21:22;;;;;;;0.98;0.90;;;17.90;88.40;;;;;;5032750;28;20226;-70
2022/11/09 11:24:19;;;;;;;0.85;0.85;;;17.90;88.20;;;;;;5017588;28;20212;-70
2022/11/09 11:27:20;;;;;;;1.42;0.98;;;17.90;88.30;;;;;;5032277;28;20238;-70
2022/11/09 11:30:27;;;;;;;1.00;1.00;;;17.90;88.40;;;;;;5017695;28;20186;-70
2022/11/09 11:33:18;;;;;;;0.90;0.90;;;17.90;88.60;;;;;;5032284;28;20264;-70
2022/11/09 11:36:27;;;;;;;0.95;0.95;;;17.90;88.50;;;;;;5017611;28;20254;-70
2022/11/09 11:39:23;;;;;;;0.90;0.90;;;17.90;89.50;;;;;;5032456;28;20203;-70
2022/11/09 11:42:28;;;;;;;1.25;0.88;;;17.90;88.90;;;;;;5017379;28;20264;-70
2022/11/09 11:45:32;;;;;;;1.08;0.98;;;18.00;88.80;;;;;;5032051;28;20206;-69
2022/11/09 11:48:53;;;;;;;1.00;1.00;;;17.90;88.90;;;;;;5017225;28;20253;-70
2022/11/09 11:52:07;;;;;;;1.20;1.00;;;17.90;89.10;;;;;;5017356;28;20206;-70
2022/11/09 11:55:18;;;;;;;1.85;1.20;;;18.00;89.10;;;;;;5017454;28;20234;-69
2022/11/09 11:58:14;;;;;;;0.85;0.85;;;18.00;89.10;;;;;;5032854;28;20206;-70
2022/11/09 12:01:18;;;;;;;1.25;1.08;;;18.00;89.30;;;;;;5032493;28;20214;-69
2022/11/09 12:04:24;;;;;;;1.23;1.10;;;18.00;89.20;;;;;;5028976;28;20226;-69
2022/11/09 12:07:34;;;;;;;1.15;0.90;;;18.00;89.20;;;;;;5016151;28;20226;-69
2022/11/09 12:10:54;;;;;;;1.65;1.00;;;18.00;89.30;;;;;;5017237;28;20182;-69
2022/11/09 12:14:00;;;;;;;1.00;0.90;;;18.00;89.50;;;;;;5010031;28;20261;-70
2022/11/09 12:16:56;;;;;;;1.10;1.00;;;18.00;89.50;;;;;;5035235;28;20272;-69
2022/11/09 12:20:17;;;;;;;1.15;0.80;;;18.00;89.60;;;;;;5032202;28;20174;-69
2022/11/09 12:23:29;;;;;;;1.15;1.05;;;18.00;89.50;;;;;;5031918;28;20305;-69
2022/11/09 12:26:28;;;;;;;1.00;0.90;;;18.00;89.60;;;;;;5030929;28;20296;-69
2022/11/09 12:29:20;;;;;;;1.30;1.10;;;18.00;89.70;;;;;;5032068;28;20194;-70
2022/11/09 12:32:10;;;;;;;1.25;1.15;;;18.00;89.80;;;;;;5031417;28;20195;-69
2022/11/09 12:35:17;;;;;;;1.70;1.10;;;18.00;90.00;;;;;;5031036;28;20279;-69
2022/11/09 12:38:14;;;;;;;0.90;0.90;;;18.00;89.70;;;;;;5032087;28;20198;-70
2022/11/09 12:41:05;;;;;;;0.90;0.90;;;18.00;89.90;;;;;;5032074;28;20198;-69
2022/11/09 12:44:14;;;;;;;1.20;1.00;;;18.00;89.90;;;;;;5032016;28;20217;-70
2022/11/09 12:47:20;;;;;;;0.80;0.80;;;18.00;90.00;;;;;;5031578;28;20286;-69
2022/11/09 12:50:10;;;;;;;1.33;1.00;;;18.00;90.00;;;;;;5030983;28;20178;-69
2022/11/09 12:52:55;;;;;;;1.88;0.98;;;18.00;90.00;;;;;;5045464;28;20214;-69
2022/11/09 12:55:51;;;;;;;1.23;1.10;;;18.00;90.00;;;;;;5031749;28;20210;-69
2022/11/09 12:58:37;;;;;;;0.90;0.90;;;18.00;90.10;;;;;;5024317;28;20182;-70
2022/11/09 13:01:25;;;;;;;1.23;1.10;;;18.00;90.10;;;;;;5031938;28;20214;-69
2022/11/09 13:04:18;;;;;;;1.65;0.90;;;18.00;90.10;;;;;;5017003;28;20218;-70
2022/11/09 13:07:02;;;;;;;1.42;1.00;;;18.00;90.10;;;;;;5016735;28;20269;-70
2022/11/09 13:09:54;;;;;;;0.80;0.80;;;18.00;90.10;;;;;;5031662;28;20275;-70
2022/11/09 13:12:41;;;;;;;1.10;1.00;;;18.00;90.10;;;;;;5031361;28;20211;-70
2022/11/09 13:15:29;;;;;;;0.98;0.80;;;18.00;90.10;;;;;;5031372;28;20198;-69
2022/11/09 13:18:42;;;;;;;0.95;0.88;;;18.00;90.20;;;;;;5032651;28;20202;-70
2022/11/09 13:21:32;;;;;;;1.10;1.00;;;18.00;90.20;;;;;;5034977;28;20194;-70
2022/11/09 13:24:33;;;;;;;1.23;0.90;;;18.00;90.10;;;;;;5019768;28;20220;-70
2022/11/09 13:27:49;;;;;;;1.30;0.82;;;18.00;90.10;;;;;;5019529;28;20224;-70